createdAt,value
2024-05-09T00:01:55.274Z,17.30
2024-05-09T00:04:25.163Z,18.67
2024-05-09T00:06:55.059Z,18.07
2024-05-09T00:09:24.886Z,17.40
2024-05-09T00:11:57.395Z,18.10
2024-05-09T00:14:27.413Z,17.10
2024-05-09T00:16:57.420Z,18.57
2024-05-09T00:19:27.702Z,18.20
2024-05-09T00:21:57.573Z,17.67
2024-05-09T00:24:27.479Z,18.27
2024-05-09T00:27:00.887Z,17.97
2024-05-09T00:29:30.830Z,17.70
2024-05-09T00:32:00.844Z,18.07
2024-05-09T00:34:30.829Z,17.90
2024-05-09T00:37:00.811Z,18.80
2024-05-09T00:39:30.733Z,17.90
2024-05-09T00:42:03.212Z,18.43
2024-05-09T00:44:33.097Z,18.63
2024-05-09T00:47:03.268Z,18.03
2024-05-09T00:49:34.771Z,17.83
2024-05-09T00:52:05.766Z,17.57
2024-05-09T00:54:36.388Z,16.73
2024-05-09T00:57:08.963Z,17.60
2024-05-09T00:59:38.982Z,17.87
2024-05-09T01:02:09.661Z,17.83
2024-05-09T01:04:39.619Z,17.70
2024-05-09T01:07:09.854Z,17.73
2024-05-09T01:09:39.715Z,17.90
2024-05-09T01:12:12.449Z,18.80
2024-05-09T01:14:42.335Z,18.60
2024-05-09T01:17:12.461Z,18.63
2024-05-09T01:19:42.608Z,18.17
2024-05-09T01:22:12.492Z,17.60
2024-05-09T01:24:44.952Z,17.73
2024-05-09T01:27:14.826Z,17.80
2024-05-09T01:29:44.629Z,17.53
2024-05-09T01:32:14.624Z,17.97
2024-05-09T01:34:44.612Z,17.87
2024-05-09T01:37:14.484Z,18.37
2024-05-09T01:39:46.943Z,18.87
2024-05-09T01:42:17.270Z,18.27
2024-05-09T01:44:47.093Z,17.33
2024-05-09T01:47:17.218Z,17.63
2024-05-09T01:49:47.205Z,17.50
2024-05-09T01:52:17.076Z,17.60
2024-05-09T01:54:49.512Z,17.27
2024-05-09T01:57:19.364Z,16.60
2024-05-09T01:59:49.229Z,17.73
2024-05-09T02:02:19.223Z,17.27
2024-05-09T02:04:50.169Z,18.17
2024-05-09T02:07:20.253Z,17.33
2024-05-09T02:09:54.480Z,18.53
2024-05-09T02:12:24.388Z,18.07
2024-05-09T02:14:54.663Z,17.67
2024-05-09T02:17:24.601Z,17.53
2024-05-09T02:19:54.491Z,18.10
2024-05-09T02:22:24.351Z,18.00
2024-05-09T02:24:56.793Z,18.63
2024-05-09T02:27:26.615Z,18.27
2024-05-09T02:29:56.538Z,18.87
2024-05-09T02:32:26.484Z,19.17
2024-05-09T02:34:56.394Z,19.37
2024-05-09T02:37:26.230Z,18.20
2024-05-09T02:39:56.023Z,18.53
2024-05-09T02:42:25.854Z,19.23
2024-05-09T02:44:53.026Z,19.63
2024-05-09T02:47:23.368Z,20.23
2024-05-09T02:49:50.697Z,20.83
2024-05-09T02:52:21.561Z,20.07
2024-05-09T02:54:48.767Z,21.30
2024-05-09T02:57:21.208Z,21.07
2024-05-09T02:59:48.399Z,22.20
2024-05-09T03:02:18.363Z,22.20
2024-05-09T03:04:45.911Z,22.70
2024-05-09T03:07:16.319Z,23.13
2024-05-09T03:09:46.954Z,22.50
2024-05-09T03:12:16.780Z,23.47
2024-05-09T03:14:49.704Z,22.93
2024-05-09T03:17:19.644Z,23.70
2024-05-09T03:19:46.980Z,22.37
2024-05-09T03:22:16.820Z,25.03
2024-05-09T03:24:44.048Z,26.03
2024-05-09T03:27:13.834Z,24.87
2024-05-09T03:29:41.066Z,24.20
2024-05-09T03:32:13.667Z,25.27
2024-05-09T03:34:40.961Z,24.40
2024-05-09T03:37:10.774Z,25.83
2024-05-09T03:39:40.706Z,25.87
2024-05-09T03:42:10.652Z,26.40
2024-05-09T03:44:41.635Z,26.63
2024-05-09T03:47:11.596Z,25.80
2024-05-09T03:49:41.564Z,26.53
2024-05-09T03:52:08.823Z,26.70
2024-05-09T03:54:38.641Z,28.23
2024-05-09T03:57:05.883Z,28.53
2024-05-09T03:59:36.883Z,28.13
2024-05-09T04:02:06.475Z,27.87
2024-05-09T04:04:39.128Z,29.10
2024-05-09T04:07:06.383Z,31.87
2024-05-09T04:09:36.236Z,31.70
2024-05-09T04:12:03.668Z,34.83
2024-05-09T04:14:33.731Z,33.23
2024-05-09T04:17:01.199Z,33.43
2024-05-09T04:19:31.344Z,34.13
2024-05-09T04:22:01.184Z,35.13
2024-05-09T04:24:31.135Z,36.57
2024-05-09T04:26:58.368Z,35.73
2024-05-09T04:29:28.338Z,35.40
2024-05-09T04:31:55.852Z,34.30
2024-05-09T04:34:25.822Z,36.50
2024-05-09T04:36:53.148Z,35.97
2024-05-09T04:39:25.625Z,36.97
2024-05-09T04:41:52.846Z,36.40
2024-05-09T04:44:22.766Z,39.37
2024-05-09T04:46:50.089Z,38.43
2024-05-09T04:49:20.211Z,38.73
2024-05-09T04:51:47.475Z,36.77
2024-05-09T04:54:26.477Z,39.97
2024-05-09T04:57:04.016Z,40.00
2024-05-09T04:59:34.020Z,40.33
2024-05-09T05:02:01.407Z,37.63
2024-05-09T05:04:31.555Z,38.30
2024-05-09T05:07:01.269Z,36.63
2024-05-09T05:09:32.433Z,38.20
2024-05-09T05:12:02.064Z,38.27
2024-05-09T05:14:34.709Z,39.63
2024-05-09T05:17:02.058Z,39.13
2024-05-09T05:19:31.991Z,37.33
2024-05-09T05:22:01.906Z,37.40
2024-05-09T05:24:29.127Z,38.53
2024-05-09T05:26:58.982Z,35.33
2024-05-09T05:29:26.704Z,36.13
2024-05-09T05:31:59.271Z,37.87
2024-05-09T05:34:26.526Z,37.87
2024-05-09T05:36:56.357Z,35.33
2024-05-09T05:39:23.628Z,37.13
2024-05-09T05:41:53.453Z,38.43
2024-05-09T05:44:20.701Z,37.80
2024-05-09T05:46:50.932Z,37.63
2024-05-09T05:49:21.080Z,37.20
2024-05-09T05:51:50.988Z,36.40
2024-05-09T05:54:18.379Z,36.90
2024-05-09T05:56:48.240Z,38.17
2024-05-09T05:59:15.895Z,36.37
2024-05-09T06:01:45.821Z,36.90
2024-05-09T06:04:13.148Z,35.57
2024-05-09T06:06:45.678Z,37.00
2024-05-09T06:09:12.897Z,37.07
2024-05-09T06:11:43.007Z,36.30
2024-05-09T06:14:10.353Z,37.67
2024-05-09T06:16:40.188Z,36.67
2024-05-09T06:19:07.472Z,37.13
2024-05-09T06:21:37.469Z,34.97
2024-05-09T06:24:07.644Z,35.00
2024-05-09T06:26:37.564Z,34.13
2024-05-09T06:29:04.999Z,36.33
2024-05-09T06:31:34.904Z,34.57
2024-05-09T06:34:02.250Z,34.73
2024-05-09T06:36:32.169Z,33.57
2024-05-09T06:38:59.392Z,33.57
2024-05-09T06:41:31.914Z,33.67
2024-05-09T06:43:59.234Z,32.97
2024-05-09T06:46:29.607Z,33.33
2024-05-09T06:48:57.301Z,32.97
2024-05-09T06:51:27.300Z,34.33
2024-05-09T06:53:55.040Z,34.67
2024-05-09T06:56:24.950Z,33.63
2024-05-09T06:58:54.826Z,34.87
2024-05-09T07:01:24.747Z,36.27
2024-05-09T07:03:52.062Z,34.87
2024-05-09T07:06:21.997Z,33.77
2024-05-09T07:08:51.877Z,33.70
2024-05-09T07:11:22.276Z,31.77
2024-05-09T07:13:49.631Z,29.87
2024-05-09T07:16:22.132Z,30.57
2024-05-09T07:18:54.928Z,30.70
2024-05-09T07:21:25.159Z,30.30
2024-05-09T07:26:22.252Z,31.70
2024-05-09T07:28:49.613Z,31.37
2024-05-09T07:31:23.485Z,32.47
2024-05-09T07:33:50.811Z,33.97
2024-05-09T07:36:20.834Z,32.03
2024-05-09T07:38:48.274Z,32.97
2024-05-09T07:41:18.203Z,33.87
2024-05-09T07:43:45.506Z,34.13
2024-05-09T07:53:53.588Z,32.57
2024-05-09T07:56:26.633Z,32.93
2024-05-09T07:58:54.525Z,31.77
2024-05-09T08:01:26.691Z,31.63
2024-05-09T08:03:57.221Z,32.13
2024-05-09T08:06:27.770Z,30.60
2024-05-09T08:08:55.319Z,30.37
2024-05-09T08:11:25.994Z,30.27
2024-05-09T08:13:53.246Z,32.13
2024-05-09T08:16:23.193Z,32.50
2024-05-09T08:18:50.612Z,31.50
2024-05-09T08:21:23.080Z,31.80
2024-05-09T08:23:50.267Z,32.07
2024-05-09T08:26:20.112Z,32.10
2024-05-09T08:28:47.299Z,31.47
2024-05-09T08:31:17.237Z,31.30
2024-05-09T08:33:45.418Z,32.27
2024-05-09T08:36:15.522Z,30.30
2024-05-09T08:38:45.485Z,31.20
2024-05-09T08:41:17.287Z,31.87
2024-05-09T08:43:45.002Z,32.50
2024-05-09T08:46:15.826Z,32.87
2024-05-09T08:48:45.773Z,33.23
2024-05-09T08:51:16.982Z,33.73
2024-05-09T08:53:46.956Z,32.13
2024-05-09T08:56:19.091Z,32.23
2024-05-09T08:58:46.698Z,30.27
2024-05-09T09:01:18.059Z,31.50
2024-05-09T09:03:46.091Z,32.53
2024-05-09T09:06:18.334Z,31.83
2024-05-09T09:08:48.788Z,30.13
2024-05-09T09:11:18.786Z,31.07
2024-05-09T09:13:46.094Z,29.50
2024-05-09T09:16:16.435Z,31.47
2024-05-09T09:18:45.980Z,31.10
2024-05-09T09:21:15.987Z,31.43
2024-05-09T09:23:43.873Z,29.97
2024-05-09T09:26:18.766Z,30.50
2024-05-09T09:28:46.216Z,29.30
2024-05-09T09:31:20.462Z,28.87
2024-05-09T09:33:47.991Z,29.70
2024-05-09T09:36:18.587Z,29.07
2024-05-09T09:38:47.448Z,28.53
2024-05-09T09:41:20.579Z,29.57
2024-05-09T09:43:48.543Z,29.13
2024-05-09T09:46:20.743Z,28.00
2024-05-09T09:48:49.129Z,29.10
2024-05-09T09:51:19.756Z,28.40
2024-05-09T09:53:51.745Z,27.87
2024-05-09T09:56:23.286Z,28.00
2024-05-09T09:58:53.809Z,28.20
2024-05-09T10:01:21.157Z,27.53
2024-05-09T10:03:51.381Z,27.60
2024-05-09T10:06:19.666Z,27.47
2024-05-09T10:08:51.049Z,27.00
2024-05-09T10:11:22.824Z,27.03
2024-05-09T10:13:55.064Z,26.90
2024-05-09T10:16:22.624Z,28.00
2024-05-09T10:18:52.833Z,27.13
2024-05-09T10:21:21.303Z,26.63
2024-05-09T10:24:01.108Z,26.50
2024-05-09T10:26:34.960Z,26.33
2024-05-09T10:29:14.803Z,27.63
2024-05-09T10:31:43.071Z,27.20
2024-05-09T10:34:20.734Z,25.07
2024-05-09T10:36:53.248Z,27.80
2024-05-09T10:39:23.442Z,26.23
2024-05-09T10:41:53.332Z,26.47
2024-05-09T10:44:24.687Z,25.20
2024-05-09T10:46:54.739Z,27.83
2024-05-09T10:49:25.494Z,25.92
2024-05-09T10:51:53.428Z,28.10
2024-05-09T10:54:23.361Z,27.27
2024-05-09T10:56:58.930Z,27.17
2024-05-09T10:59:35.628Z,26.30
2024-05-09T11:02:05.006Z,28.15
2024-05-09T11:04:36.495Z,26.85
2024-05-09T11:07:08.442Z,27.95
2024-05-09T11:09:40.094Z,27.67
2024-05-09T11:12:10.912Z,28.13
2024-05-09T11:14:40.888Z,28.10
2024-05-09T11:17:08.667Z,28.20
2024-05-09T11:19:41.068Z,28.73
2024-05-09T11:22:08.618Z,27.48
2024-05-09T11:24:38.672Z,27.67
2024-05-09T11:27:06.424Z,27.33
2024-05-09T11:29:44.705Z,27.65
2024-05-09T11:32:14.866Z,29.27
2024-05-09T11:34:45.403Z,30.48
2024-05-09T11:37:13.897Z,30.17
2024-05-09T11:39:43.892Z,29.50
2024-05-09T11:42:11.179Z,30.98
2024-05-09T11:44:43.638Z,29.52
2024-05-09T11:47:10.970Z,28.90
2024-05-09T11:49:40.902Z,28.65
2024-05-09T11:52:08.214Z,29.75
2024-05-09T11:54:38.196Z,29.23
2024-05-09T11:57:06.878Z,29.70
2024-05-09T11:59:36.729Z,28.15
2024-05-09T12:02:06.759Z,29.98
2024-05-09T12:04:36.722Z,28.95
2024-05-09T12:07:04.480Z,30.70
2024-05-09T12:09:34.825Z,30.83
2024-05-09T12:12:02.089Z,31.23
2024-05-09T12:14:32.075Z,30.67
2024-05-09T12:17:01.228Z,29.63
2024-05-09T12:19:33.764Z,30.70
2024-05-09T12:22:01.182Z,31.98
2024-05-09T12:24:31.130Z,30.55
2024-05-09T12:26:58.531Z,30.88
2024-05-09T12:29:29.029Z,31.40
2024-05-09T12:31:56.267Z,31.13
2024-05-09T12:34:26.110Z,31.02
2024-05-09T12:36:56.085Z,30.00
2024-05-09T12:39:25.960Z,30.08
2024-05-09T12:41:53.131Z,28.48
2024-05-09T12:44:23.153Z,29.23
2024-05-09T12:46:50.454Z,30.20
2024-05-09T12:49:20.730Z,28.40
2024-05-09T12:51:48.182Z,29.48
2024-05-09T12:54:21.163Z,28.75
2024-05-09T12:56:48.660Z,28.85
2024-05-09T12:59:18.538Z,29.67
2024-05-09T13:01:45.866Z,28.23
2024-05-09T13:04:15.864Z,27.58
2024-05-09T13:06:43.202Z,28.48
2024-05-09T13:09:13.731Z,28.05
2024-05-09T13:11:43.639Z,27.40
2024-05-09T13:14:13.527Z,27.05
2024-05-09T13:16:40.849Z,26.90
2024-05-09T13:19:10.992Z,25.88
2024-05-09T13:21:38.425Z,24.58
2024-05-09T13:24:08.926Z,24.35
2024-05-09T13:26:36.239Z,24.60
2024-05-09T13:29:08.705Z,24.27
2024-05-09T13:31:35.974Z,26.20
2024-05-09T13:34:05.937Z,27.83
2024-05-09T13:36:33.374Z,29.33
2024-05-09T13:39:03.925Z,25.65
2024-05-09T13:41:31.176Z,25.20
2024-05-09T13:44:00.999Z,21.85
2024-05-09T13:46:31.893Z,22.48
2024-05-09T13:49:02.060Z,21.60
2024-05-09T13:51:29.419Z,21.80
2024-05-09T13:53:59.466Z,22.50
2024-05-09T13:56:26.701Z,24.80
2024-05-09T13:58:56.755Z,23.95
2024-05-09T14:01:25.683Z,23.75
2024-05-09T14:03:58.486Z,23.35
2024-05-09T14:06:25.882Z,23.48
2024-05-09T14:08:55.812Z,23.42
2024-05-09T14:11:23.165Z,22.63
2024-05-09T14:13:53.250Z,23.00
2024-05-09T14:16:20.543Z,23.48
2024-05-09T14:18:50.437Z,22.38
2024-05-09T14:21:20.308Z,22.13
2024-05-09T14:23:50.119Z,24.73
2024-05-09T14:26:17.732Z,24.88
2024-05-09T14:28:47.821Z,22.90
2024-05-09T14:31:15.047Z,20.83
2024-05-09T14:33:45.154Z,21.38
2024-05-09T14:36:12.486Z,21.00
2024-05-09T14:38:45.103Z,21.35
2024-05-09T14:41:13.465Z,21.23
2024-05-09T14:43:43.270Z,21.98
2024-05-09T14:46:10.710Z,22.02
2024-05-09T14:48:41.018Z,22.08
2024-05-09T14:51:08.368Z,21.80
2024-05-09T14:53:38.202Z,21.00
2024-05-09T14:56:08.430Z,21.25
2024-05-09T14:58:38.287Z,19.95
2024-05-09T15:01:05.789Z,21.13
2024-05-09T15:03:35.891Z,19.70
2024-05-09T15:06:03.342Z,19.08
2024-05-09T15:08:33.713Z,22.35
2024-05-09T15:11:01.043Z,21.90
2024-05-09T15:13:33.826Z,20.92
2024-05-09T15:16:01.309Z,20.10
2024-05-09T15:18:31.317Z,20.67
2024-05-09T15:20:58.724Z,19.98
2024-05-09T15:23:28.809Z,19.58
2024-05-09T15:25:56.070Z,20.88
2024-05-09T15:28:26.084Z,20.30
2024-05-09T15:30:56.133Z,22.08
2024-05-09T15:33:27.918Z,20.77
2024-05-09T15:35:55.286Z,23.58
2024-05-09T15:38:26.442Z,22.05
2024-05-09T15:40:53.923Z,22.42
2024-05-09T15:43:25.164Z,23.05
2024-05-09T15:45:52.729Z,22.67
2024-05-09T15:48:25.463Z,22.70
2024-05-09T15:50:52.762Z,22.13
2024-05-09T15:53:22.780Z,23.02
2024-05-09T15:55:50.060Z,21.90
2024-05-09T15:58:20.253Z,21.98
2024-05-09T16:00:52.151Z,21.88
2024-05-09T16:03:22.587Z,19.67
2024-05-09T16:05:53.525Z,21.67
2024-05-09T16:08:20.851Z,21.85
2024-05-09T16:10:50.860Z,21.73
2024-05-09T16:13:19.720Z,22.10
2024-05-09T16:15:50.426Z,21.73
2024-05-09T16:18:18.004Z,23.08
2024-05-09T16:20:50.966Z,22.10
2024-05-09T16:23:20.892Z,22.98
2024-05-09T16:25:48.717Z,23.15
2024-05-09T16:28:21.736Z,22.15
2024-05-09T16:30:50.463Z,20.95
2024-05-09T16:33:23.723Z,21.02
2024-05-09T16:35:53.984Z,23.80
2024-05-09T16:38:23.836Z,33.72
2024-05-09T16:40:51.159Z,32.67
2024-05-09T16:43:21.329Z,32.08
2024-05-09T16:45:48.835Z,33.70
2024-05-09T16:48:19.092Z,33.63
2024-05-09T16:50:46.403Z,35.10
2024-05-09T16:53:19.157Z,36.17
2024-05-09T16:55:46.408Z,35.70
2024-05-09T16:58:16.543Z,35.78
2024-05-09T17:00:44.526Z,36.77
2024-05-09T17:03:16.565Z,39.23
2024-05-09T17:05:46.464Z,38.35
2024-05-09T17:08:20.798Z,38.83
2024-05-09T17:10:49.235Z,38.40
2024-05-09T17:13:20.218Z,41.07
2024-05-09T17:15:50.956Z,39.17
2024-05-09T17:18:21.176Z,41.20
2024-05-09T17:20:52.539Z,40.80
2024-05-09T17:23:22.663Z,38.80
2024-05-09T17:25:52.645Z,38.73
2024-05-09T17:28:20.218Z,38.97
2024-05-09T17:30:50.368Z,42.27
2024-05-09T17:33:17.922Z,40.97
2024-05-09T17:35:50.511Z,39.97
2024-05-09T17:38:18.334Z,40.30
2024-05-09T17:40:50.986Z,40.97
2024-05-09T17:43:18.348Z,40.70
2024-05-09T17:45:48.309Z,42.40
2024-05-09T17:48:17.308Z,40.43
2024-05-09T17:50:47.195Z,39.87
2024-05-09T17:53:14.539Z,39.40
2024-05-09T17:55:44.369Z,39.67
2024-05-09T17:58:14.604Z,39.43
2024-05-09T18:00:46.063Z,39.43
2024-05-09T18:03:14.695Z,40.17
2024-05-09T18:05:45.494Z,40.30
2024-05-09T18:08:13.527Z,40.83
2024-05-09T18:10:44.437Z,40.37
2024-05-09T18:13:14.712Z,40.67
2024-05-09T18:15:45.313Z,41.57
2024-05-09T18:18:13.505Z,40.83
2024-05-09T18:20:45.843Z,41.73
2024-05-09T18:23:16.131Z,40.00
2024-05-09T18:25:48.130Z,39.40
2024-05-09T18:28:18.448Z,40.93
2024-05-09T18:30:48.369Z,40.50
2024-05-09T18:33:16.348Z,40.33
2024-05-09T18:35:47.411Z,40.73
2024-05-09T18:38:14.761Z,40.67
2024-05-09T18:40:47.405Z,40.23
2024-05-09T18:43:24.121Z,39.73
2024-05-09T18:45:58.646Z,40.40
2024-05-09T18:48:26.000Z,42.07
2024-05-09T18:50:55.906Z,40.20
2024-05-09T18:53:23.154Z,40.80
2024-05-09T18:55:53.062Z,39.90
2024-05-09T18:58:23.134Z,39.60
2024-05-09T19:00:55.476Z,40.43
2024-05-09T19:03:24.685Z,39.43
2024-05-09T19:05:54.840Z,39.50
2024-05-09T19:08:22.179Z,39.60
2024-05-09T19:10:52.705Z,39.50
2024-05-09T19:13:22.782Z,40.80
2024-05-09T19:15:52.766Z,41.07
2024-05-09T19:18:20.251Z,40.83
2024-05-09T19:20:50.195Z,42.03
2024-05-09T19:23:17.477Z,40.80
2024-05-09T19:25:47.384Z,40.87
2024-05-09T19:28:14.843Z,41.27
2024-05-09T19:30:47.469Z,40.00
2024-05-09T19:33:15.151Z,39.73
2024-05-09T19:35:45.469Z,40.20
2024-05-09T19:38:12.997Z,41.47
2024-05-09T19:40:43.003Z,41.93
2024-05-09T19:43:11.233Z,41.40
2024-05-09T19:45:41.355Z,39.87
2024-05-09T19:48:11.606Z,41.03
2024-05-09T19:50:44.199Z,42.83
2024-05-09T19:53:12.713Z,42.77
2024-05-09T19:55:42.917Z,43.63
2024-05-09T19:58:11.208Z,47.30
2024-05-09T20:00:43.516Z,47.27
2024-05-09T20:03:15.363Z,49.50
2024-05-09T20:05:48.442Z,50.03
2024-05-09T20:08:16.401Z,49.77
2024-05-09T20:10:46.597Z,46.30
2024-05-09T20:13:14.082Z,46.13
2024-05-09T20:15:44.095Z,42.60
2024-05-09T20:18:14.317Z,41.17
2024-05-09T20:20:45.498Z,40.13
2024-05-09T20:23:13.908Z,40.57
2024-05-09T20:25:44.371Z,41.50
2024-05-09T20:28:11.791Z,41.20
2024-05-09T20:30:41.885Z,39.63
2024-05-09T20:33:10.032Z,39.50
2024-05-09T20:35:43.052Z,39.90
2024-05-09T20:38:10.352Z,41.53
2024-05-09T20:40:40.603Z,39.90
2024-05-09T20:43:08.992Z,38.33
2024-05-09T20:45:39.817Z,37.27
2024-05-09T20:48:08.987Z,37.60
2024-05-09T20:50:41.687Z,36.27
2024-05-09T20:53:14.006Z,36.80
2024-05-09T20:55:45.542Z,35.83
2024-05-09T20:58:13.704Z,35.27
2024-05-09T21:00:45.753Z,35.53
2024-05-09T21:03:16.126Z,35.20
2024-05-09T21:05:47.784Z,34.43
2024-05-09T21:08:18.156Z,34.47
2024-05-09T21:10:48.199Z,31.53
2024-05-09T21:13:15.655Z,31.13
2024-05-09T21:15:45.700Z,29.67
2024-05-09T21:18:13.092Z,29.03
2024-05-09T21:20:42.988Z,28.63
2024-05-09T21:23:10.236Z,28.10
2024-05-09T21:25:42.833Z,27.33
2024-05-09T21:28:10.231Z,27.67
2024-05-09T21:30:42.707Z,27.43
2024-05-09T21:33:12.767Z,27.83
2024-05-09T21:35:44.725Z,26.17
2024-05-09T21:38:13.930Z,26.70
2024-05-09T21:40:47.054Z,26.57
2024-05-09T21:43:14.640Z,26.47
2024-05-09T21:45:44.849Z,25.23
2024-05-09T21:48:13.317Z,25.73
2024-05-09T21:50:43.304Z,25.00
2024-05-09T21:53:10.997Z,25.13
2024-05-09T21:55:41.035Z,26.20
2024-05-09T21:58:13.514Z,25.87
2024-05-09T22:00:45.767Z,24.67
2024-05-09T22:03:13.810Z,25.73
2024-05-09T22:05:45.063Z,26.77
2024-05-09T22:08:12.785Z,26.93
2024-05-09T22:10:42.722Z,28.73
2024-05-09T22:13:12.789Z,28.27
2024-05-09T22:15:42.833Z,28.63
2024-05-09T22:18:11.261Z,28.20
2024-05-09T22:20:45.375Z,28.20
2024-05-09T22:23:13.957Z,28.37
2024-05-09T22:25:44.282Z,28.10
2024-05-09T22:28:16.136Z,28.83
2024-05-09T22:30:47.314Z,29.43
2024-05-09T22:33:15.503Z,29.30
2024-05-09T22:35:45.593Z,30.63
2024-05-09T22:38:13.076Z,30.00
2024-05-09T22:40:48.037Z,31.97
2024-05-09T22:43:21.623Z,30.50
2024-05-09T22:45:54.381Z,31.87
2024-05-09T22:48:22.328Z,32.30
2024-05-09T22:50:52.274Z,29.53
2024-05-09T22:53:21.323Z,29.90
2024-05-09T22:55:51.313Z,30.23
2024-05-09T22:58:21.705Z,30.53
2024-05-09T23:00:51.876Z,30.30
2024-05-09T23:03:21.532Z,30.23
2024-05-09T23:05:51.778Z,31.27
2024-05-09T23:08:19.025Z,30.40
2024-05-09T23:10:48.971Z,30.67
2024-05-09T23:13:16.379Z,29.87
2024-05-09T23:15:48.900Z,30.97
2024-05-09T23:18:16.260Z,31.10
2024-05-09T23:20:46.176Z,31.63
2024-05-09T23:23:13.411Z,33.27
2024-05-09T23:25:43.737Z,33.13
2024-05-09T23:28:11.426Z,33.27
2024-05-09T23:30:42.156Z,33.67
2024-05-09T23:33:13.723Z,32.60
2024-05-09T23:35:45.113Z,32.20
2024-05-09T23:38:12.374Z,31.77
2024-05-09T23:40:43.129Z,32.50
2024-05-09T23:43:11.747Z,32.27
2024-05-09T23:45:42.754Z,33.63
2024-05-09T23:48:13.040Z,32.70
2024-05-09T23:50:42.964Z,32.93
2024-05-09T23:53:10.947Z,33.97
2024-05-09T23:55:41.163Z,32.93
2024-05-09T23:58:08.911Z,35.33
